Nearby METAR Reports

 

KMTN - Baltimore/Martin, Maryland, USA
Distance from station: SSE 8mi, 13km
Updated: Fri, 30-Jan-2015 5:45am EST
Partly cloudy
Partly cloudy
 Wind from W
Wind: W 12 mph , 19 km/h
Temperature: 37°F , 3°C
Wind Chill: 29°F , -2°C
Dew Point: 30°F , -1°C
Humidity: 75%
Barometer: 29.94 inHg , 1013.9 hPa
Clouds: Partly cloudy
Visibility: 10 miles , 16 km
Cloud details: Partly cloudy 8500 ft
2015/01/30 10:45 KMTN 301045Z 26010KT 10SM SCT085 03/M01 A2994 RMK FIRST
KDMH - Baltimore/Dwntwn, Maryland, USA
Distance from station: SW 12mi, 19km
Updated: Fri, 30-Jan-2015 4:54am EST

 
Temperature: 37°F , 3°C
Dew Point: 27°F , -3°C
Humidity: 65%
Barometer: 29.91 inHg , 1012.9 hPa
2015/01/30 09:54 KDMH 300954Z AUTO 03/M03 A2991 RMK AO1 SLP127 T00331033
 
KBWI - Balto/Wash Intl, Maryland, USA
Distance from station: SSW 20mi, 33km
Updated: Fri, 30-Jan-2015 4:54am EST
Mostly cloudy
Mostly cloudy
 Wind from WNW
Wind: WNW 10 mph , 17 km/h
Temperature: 37°F , 3°C
Wind Chill: 30°F , -1°C
Dew Point: 27°F , -3°C
Humidity: 65%
Barometer: 29.90 inHg , 1012.5 hPa
Clouds: Mostly cloudy
Visibility: 10 miles , 16 km
Cloud details: Mostly cloudy 7500 ft
2015/01/30 09:54 KBWI 300954Z 29009KT 10SM BKN075 03/M03 A2990 RMK AO2 SLP127 T00281028
KDMW - Carroll Cnty, Maryland, USA
Distance from station: WNW 30mi, 48km
Updated: Fri, 30-Jan-2015 5:30am EST
Partly cloudy
Partly cloudy
 Wind from WNW
Wind: WNW 9 mph , 15 km/h
Temperature: 34°F , 1°C
Wind Chill: 27°F , -3°C
Dew Point: 27°F , -3°C
Humidity: 75%
Barometer: 29.90 inHg , 1012.5 hPa
Clouds: Partly cloudy
Visibility: 10 miles , 16 km
Cloud details: Partly cloudy 3100 ft
Partly cloudy 8000 ft
2015/01/30 10:30 KDMW 301030Z AUTO 29008KT 10SM SCT031 SCT080 01/M03 A2990 RMK AO2
 
KNAK - Annapolis/Naval, Maryland, USA
Distance from station: S 30mi, 48km
Updated: Fri, 30-Jan-2015 4:54am EST
Overcast
Overcast
 Wind from NW
Wind: NW 6 mph , 9 km/h
Temperature: 39°F , 4°C
Wind Chill: 35°F , 2°C
Dew Point: 27°F , -3°C
Humidity: 61%
Barometer: 29.91 inHg , 1012.9 hPa
Clouds: Overcast
Visibility: 10 miles , 16 km
Cloud details: Overcast 6500 ft
2015/01/30 09:54 KNAK 300954Z AUTO 31005KT 10SM OVC065 04/M03 A2991 RMK AO2 SLP129 T00391033
KW29 - Stevensville, Maryland, USA
Distance from station: SSE 31mi, 50km
Updated: Fri, 30-Jan-2015 5:29am EST

 Wind from WNW
Wind: WNW 12 mph , 19 km/h, Gust: 16 mph , 26 km/h
Temperature: 37°F , 3°C
Wind Chill: 29°F , -2°C
Dew Point: 28°F , -2°C
Humidity: 70%
Barometer: 29.92 inHg , 1013.2 hPa
Visibility: 10 miles , 16 km
2015/01/30 10:29 KW29 301029Z AUTO 30010G14KT 10SM 03/M02 A2992 RMK AO1
 
KCGS - College Park, Maryland, USA
Distance from station: SW 38mi, 61km
Updated: Fri, 30-Jan-2015 5:25am EST
Mostly cloudy
Mostly cloudy
 Wind from NW
Wind: NW 5 mph , 7 km/h
Temperature: 39°F , 4°C
Wind Chill: 35°F , 2°C
Dew Point: 30°F , -1°C
Humidity: 70%
Barometer: 29.93 inHg , 1013.5 hPa
Clouds: Mostly cloudy
Visibility: 10 miles , 16 km
Cloud details: Partly cloudy 7500 ft
Mostly cloudy 9000 ft
2015/01/30 10:25 KCGS 301025Z AUTO 31004KT 10SM SCT075 BKN090 04/M01 A2993 RMK AO1
KGAI - Gaithersburg, Maryland, USA
Distance from station: WSW 40mi, 65km
Updated: Fri, 30-Jan-2015 5:35am EST
Clear
Clear
 Wind from NW
Wind: NW 10 mph , 17 km/h, Gust: 17 mph , 28 km/h
Temperature: 36°F , 2°C
Wind Chill: 29°F , -2°C
Dew Point: 25°F , -4°C
Humidity: 65%
Barometer: 29.95 inHg , 1014.2 hPa
Clouds: Clear
Visibility: 10 miles , 16 km
2015/01/30 10:35 KGAI 301035Z 31009G15KT 10SM CLR 02/M04 A2995 RMK AO1
 
KTHV - York, Pennsylvania, USA
Distance from station: NNW 40mi, 65km
Updated: Fri, 30-Jan-2015 4:53am EST
Overcast
Overcast
 Wind from WNW
Wind: WNW 9 mph , 15 km/h
Temperature: 32°F , 0°C
Wind Chill: 24°F , -4°C
Dew Point: 27°F , -3°C
Humidity: 80%
Barometer: 29.89 inHg , 1012.2 hPa
Clouds: Overcast
Visibility: 10 miles , 16 km
Cloud details: Mostly cloudy 3200 ft
Mostly cloudy 6500 ft
Overcast 8000 ft
2015/01/30 09:53 KTHV 300953Z AUTO 29008KT 10SM BKN032 BKN065 OVC080 00/M03 A2989 RMK AO2 SLP129 T00001033
KFDK - Frederick, Maryland, USA
Distance from station: W 47mi, 75km
Updated: Fri, 30-Jan-2015 5:25am EST
Partly cloudy
Partly cloudy
 Wind from NW
Wind: NW 7 mph , 11 km/h
Temperature: 36°F , 2°C
Wind Chill: 30°F , -1°C
Dew Point: 27°F , -3°C
Humidity: 70%
Barometer: 29.97 inHg , 1014.9 hPa
Clouds: Partly cloudy
Visibility: 10 miles , 16 km
Cloud details: Partly cloudy 4000 ft
2015/01/30 10:25 KFDK 301025Z AUTO 32006KT 10SM SCT040 02/M03 A2997 RMK AO2
 
KESN - Easton/Newnam, Maryland, USA
Distance from station: SSE 48mi, 78km
Updated: Fri, 30-Jan-2015 5:45am EST
Overcast
Overcast
 Wind from NW
Wind: NW 12 mph , 19 km/h, Gust: 17 mph , 28 km/h
Temperature: 39°F , 4°C
Wind Chill: 32°F , 0°C
Dew Point: 30°F , -1°C
Humidity: 70%
Barometer: 29.94 inHg , 1013.9 hPa
Clouds: Overcast
Visibility: 10 miles , 16 km
Cloud details: Overcast 5500 ft
2015/01/30 10:45 KESN 301045Z 32010G15KT 10SM OVC055 04/M01 A2994
KDCA - Washington/Natl, Washington D.c., USA
Distance from station: SW 49mi, 79km
Updated: Fri, 30-Jan-2015 4:52am EST
Overcast
Overcast
 Wind from NW
Wind: NW 10 mph , 17 km/h
Temperature: 43°F , 6°C
Wind Chill: 37°F , 3°C
Dew Point: 28°F , -2°C
Humidity: 57%
Barometer: 29.93 inHg , 1013.5 hPa
Clouds: Overcast
Visibility: 10 miles , 16 km
Cloud details: Overcast 7000 ft
2015/01/30 09:52 KDCA 300952Z 32009KT 10SM OVC070 06/M02 A2993 RMK AO2 SLP135 T00561022 $
 
KLNS - Lancaster, Pennsylvania, USA
Distance from station: N 49mi, 79km
Updated: Fri, 30-Jan-2015 4:53am EST
Overcast
Overcast
 Wind from WNW
Wind: WNW 6 mph , 9 km/h
Temperature: 28°F , -2°C
Wind Chill: 21°F , -6°C
Dew Point: 25°F , -4°C
Humidity: 86%
Barometer: 29.89 inHg , 1012.2 hPa
Clouds: Overcast
Visibility: 9 miles , 14 km
Cloud details: Mostly cloudy 4600 ft
Overcast 7500 ft
2015/01/30 09:53 KLNS 300953Z AUTO 30005KT 9SM BKN046 OVC075 M02/M04 A2989 RMK AO2 SLP126 T10171044
KILG - Wilmington, Delaware, USA
Distance from station: ENE 50mi, 81km
Updated: Fri, 30-Jan-2015 4:51am EST
Overcast
Overcast
 Wind from WNW
Wind: WNW 10 mph , 17 km/h
Temperature: 34°F , 1°C
Wind Chill: 26°F , -3°C
Dew Point: 25°F , -4°C
Humidity: 70%
Barometer: 29.88 inHg , 1011.9 hPa
Clouds: Overcast
Visibility: 10 miles , 16 km
Cloud details: Overcast 5000 ft
2015/01/30 09:51 KILG 300951Z AUTO 29009KT 10SM OVC050 01/M04 A2988 RMK AO2 SLP120 T00111044